Time;durP1;ratioP1;P1;durP2;ratioP2;P2;SDS_P1;SDS_P2;PMS_P1;PMS_P2;Temp;Humidity;BMP_temperature;BMP_pressure;BME280_temperature;BME280_humidity;BME280_pressure;Samples;Min_cycle;Max_cycle;Signal;HPM_P1;HPM_P2
2022/07/20 00:00:11;;;;;;;5.43;4.90;;;;;22.60;100872.00;;;;5075299;28;20312;-72
2022/07/20 00:02:57;;;;;;;6.33;5.13;;;;;22.60;100875.00;;;;5074011;28;20243;-75
2022/07/20 00:05:45;;;;;;;5.30;4.80;;;;;22.70;100877.00;;;;5078151;28;20259;-68
2022/07/20 00:11:36;;;;;;;7.37;5.57;;;;;22.60;100876.00;;;;5069410;28;20238;-71
2022/07/20 00:14:22;;;;;;;7.63;5.20;;;;;22.50;100875.00;;;;5077669;28;20222;-73
2022/07/20 00:17:10;;;;;;;8.10;5.80;;;;;22.50;100872.00;;;;5071638;28;20317;-71
2022/07/20 00:19:56;;;;;;;10.17;4.93;;;;;22.40;100877.00;;;;5088718;28;20280;-70
2022/07/20 00:22:43;;;;;;;6.13;5.50;;;;;22.40;100875.00;;;;5076047;28;20234;-72
2022/07/20 00:25:29;;;;;;;8.50;5.13;;;;;22.40;100876.00;;;;5074379;28;20703;-74
2022/07/20 00:28:16;;;;;;;9.40;5.60;;;;;22.40;100874.00;;;;5071550;28;20242;-74
2022/07/20 00:31:02;;;;;;;9.93;5.40;;;;;22.40;100867.00;;;;5080271;28;20273;-72
2022/07/20 00:33:50;;;;;;;6.03;5.43;;;;;22.40;100864.00;;;;5082975;28;20744;-72
2022/07/20 00:36:36;;;;;;;6.43;5.73;;;;;22.30;100865.00;;;;5078435;28;20248;-74
2022/07/20 00:39:23;;;;;;;9.50;5.70;;;;;22.20;100863.00;;;;5075444;28;20297;-73
2022/07/20 00:42:09;;;;;;;6.30;5.47;;;;;22.20;100859.00;;;;5081710;28;20309;-73
2022/07/20 00:44:55;;;;;;;6.57;5.60;;;;;22.20;100858.00;;;;5083796;28;20287;-72
2022/07/20 00:47:42;;;;;;;7.17;5.37;;;;;22.30;100857.00;;;;5063011;28;20244;-73
2022/07/20 00:50:30;;;;;;;5.80;5.17;;;;;22.20;100859.00;;;;5058924;28;20950;-73
2022/07/20 00:53:16;;;;;;;6.77;5.40;;;;;22.20;100862.00;;;;5060261;28;20239;-74
2022/07/20 00:56:12;;;;;;;6.80;5.30;;;;;22.10;100848.00;;;;5064710;28;20235;-74
2022/07/20 00:58:58;;;;;;;6.10;5.23;;;;;22.10;100839.00;;;;5060799;28;20234;-73
2022/07/20 01:01:45;;;;;;;5.70;5.10;;;;;22.00;100839.00;;;;5052399;28;20329;-74
2022/07/20 01:04:31;;;;;;;6.43;5.57;;;;;22.00;100849.00;;;;5055731;28;20238;-73
2022/07/20 01:07:19;;;;;;;8.83;5.90;;;;;22.00;100846.00;;;;5061245;28;21067;-74
2022/07/20 01:10:06;;;;;;;6.47;5.77;;;;;21.90;100844.00;;;;5063771;28;20608;-74
2022/07/20 01:12:53;;;;;;;6.93;5.93;;;;;21.90;100850.00;;;;5055432;28;20242;-74
2022/07/20 01:15:39;;;;;;;6.80;5.40;;;;;21.90;100843.00;;;;5058775;28;20328;-76
2022/07/20 01:18:26;;;;;;;10.73;5.43;;;;;21.90;100845.00;;;;5064327;28;20781;-74
2022/07/20 01:21:16;;;;;;;6.40;5.60;;;;;21.80;100838.00;;;;5057525;28;20239;-72
2022/07/20 01:24:02;;;;;;;9.20;5.43;;;;;21.80;100829.00;;;;5080850;28;20248;-74
2022/07/20 01:26:48;;;;;;;7.23;5.47;;;;;21.80;100825.00;;;;5082730;28;20233;-74
2022/07/20 01:29:34;;;;;;;9.27;5.53;;;;;21.80;100826.00;;;;5079177;28;20237;-78
2022/07/20 01:32:21;;;;;;;9.83;5.47;;;;;21.70;100820.00;;;;5077747;28;20634;-74
2022/07/20 01:35:08;;;;;;;6.20;5.60;;;;;21.70;100818.00;;;;5057145;28;20237;-75
2022/07/20 01:37:56;;;;;;;6.97;5.63;;;;;21.50;100813.00;;;;5060728;28;20303;-74
2022/07/20 01:40:42;;;;;;;6.00;5.30;;;;;21.40;100817.00;;;;5057183;28;20618;-72
2022/07/20 01:43:28;;;;;;;7.40;5.23;;;;;21.30;100813.00;;;;5054131;28;20304;-71
2022/07/20 01:46:15;;;;;;;9.30;5.67;;;;;21.40;100825.00;;;;5060534;28;20304;-71
2022/07/20 01:49:01;;;;;;;6.03;5.43;;;;;21.30;100823.00;;;;5069935;28;20363;-69
2022/07/20 01:51:48;;;;;;;5.90;5.27;;;;;21.30;100823.00;;;;5060788;28;20314;-72
2022/07/20 01:54:35;;;;;;;9.00;5.73;;;;;21.40;100821.00;;;;5062222;28;20734;-71
2022/07/20 01:57:22;;;;;;;8.70;5.60;;;;;21.30;100822.00;;;;5071256;28;20230;-72
2022/07/20 02:00:12;;;;;;;9.00;5.53;;;;;21.20;100816.00;;;;5060043;28;20237;-72
2022/07/20 02:03:06;;;;;;;7.70;5.80;;;;;21.20;100817.00;;;;5063179;28;20227;-71
2022/07/20 02:05:52;;;;;;;7.70;5.53;;;;;21.20;100820.00;;;;5063661;28;21114;-75
2022/07/20 02:08:39;;;;;;;7.97;5.90;;;;;21.30;100819.00;;;;5057229;28;20253;-73
2022/07/20 02:11:26;;;;;;;7.33;5.97;;;;;21.20;100817.00;;;;5063624;28;20220;-72
2022/07/20 02:14:13;;;;;;;8.63;5.97;;;;;21.10;100824.00;;;;5061873;28;20228;-71
2022/07/20 02:16:59;;;;;;;8.63;5.50;;;;;21.10;100823.00;;;;5064512;28;20260;-72
2022/07/20 02:19:45;;;;;;;7.80;5.33;;;;;21.00;100824.00;;;;5061448;28;20228;-70
2022/07/20 02:22:31;;;;;;;6.03;5.37;;;;;21.10;100823.00;;;;5065604;28;20224;-71
2022/07/20 02:25:18;;;;;;;7.10;5.57;;;;;21.10;100821.00;;;;5060217;28;20220;-71
2022/07/20 02:28:07;;;;;;;10.23;5.63;;;;;21.00;100826.00;;;;5066230;28;20310;-72
2022/07/20 02:30:54;;;;;;;6.07;5.47;;;;;20.90;100820.00;;;;5073623;28;20716;-71
2022/07/20 02:33:41;;;;;;;7.43;5.60;;;;;20.90;100811.00;;;;5059048;28;20228;-72
2022/07/20 02:36:27;;;;;;;9.10;5.40;;;;;21.00;100818.00;;;;5059444;28;20231;-69
2022/07/20 02:39:13;;;;;;;7.33;6.20;;;;;20.80;100822.00;;;;5070719;28;20391;-71
2022/07/20 02:41:59;;;;;;;8.43;6.23;;;;;20.80;100808.00;;;;5056860;28;20228;-74
2022/07/20 02:44:47;;;;;;;9.27;5.47;;;;;20.90;100813.00;;;;5062204;28;20224;-71
2022/07/20 02:47:42;;;;;;;7.63;5.73;;;;;20.80;100810.00;;;;5080184;28;20308;-72
2022/07/20 02:50:29;;;;;;;7.93;5.80;;;;;20.80;100819.00;;;;5086332;28;20465;-72
2022/07/20 02:53:15;;;;;;;7.40;5.73;;;;;20.60;100822.00;;;;5066849;28;20289;-72
2022/07/20 02:56:02;;;;;;;7.53;5.80;;;;;20.60;100814.00;;;;5062654;28;20282;-72
2022/07/20 02:58:48;;;;;;;11.87;5.90;;;;;20.60;100809.00;;;;5059796;28;20224;-71
2022/07/20 03:01:36;;;;;;;6.40;5.40;;;;;20.70;100809.00;;;;5081084;28;20231;-73
2022/07/20 03:04:26;;;;;;;9.73;5.90;;;;;20.60;100808.00;;;;5083621;28;20228;-73
2022/07/20 03:07:12;;;;;;;7.33;5.90;;;;;20.40;100806.00;;;;5072155;28;20228;-73
2022/07/20 03:09:58;;;;;;;6.73;5.50;;;;;20.40;100814.00;;;;5094420;28;20310;-71
2022/07/20 03:12:45;;;;;;;8.03;6.07;;;;;20.50;100815.00;;;;5082555;28;20235;-73
2022/07/20 03:15:31;;;;;;;8.30;5.70;;;;;20.50;100818.00;;;;5089312;28;20234;-73
2022/07/20 03:18:19;;;;;;;7.87;6.30;;;;;20.50;100815.00;;;;5091214;27;20349;-72
2022/07/20 03:21:06;;;;;;;8.33;5.83;;;;;20.50;100813.00;;;;5086502;28;20227;-73
2022/07/20 03:23:52;;;;;;;8.47;5.40;;;;;20.50;100804.00;;;;5081563;28;20243;-72
2022/07/20 03:26:39;;;;;;;6.90;5.60;;;;;20.40;100813.00;;;;5078991;28;20231;-71
2022/07/20 03:29:25;;;;;;;9.33;6.23;;;;;20.50;100817.00;;;;5077965;28;20633;-74
2022/07/20 03:32:12;;;;;;;8.77;5.80;;;;;20.30;100818.00;;;;5089960;27;20766;-73
2022/07/20 03:35:00;;;;;;;9.07;5.80;;;;;20.30;100815.00;;;;5085599;28;20235;-73
2022/07/20 03:37:47;;;;;;;7.87;5.50;;;;;20.40;100812.00;;;;5085068;28;20265;-74
2022/07/20 03:40:33;;;;;;;7.70;5.90;;;;;20.40;100808.00;;;;5080475;28;20273;-71
2022/07/20 03:43:20;;;;;;;6.63;5.80;;;;;20.30;100811.00;;;;5083825;28;20220;-71
2022/07/20 03:46:06;;;;;;;10.97;5.60;;;;;20.30;100812.00;;;;5072558;28;20220;-72
2022/07/20 03:48:53;;;;;;;7.60;5.80;;;;;20.30;100819.00;;;;5081936;28;20405;-72
2022/07/20 03:51:41;;;;;;;8.40;6.10;;;;;20.40;100820.00;;;;5087034;28;20231;-71
2022/07/20 03:54:28;;;;;;;6.40;5.70;;;;;20.30;100817.00;;;;5086107;28;20219;-72
2022/07/20 03:57:14;;;;;;;9.10;5.47;;;;;20.40;100823.00;;;;5076163;28;20273;-71
2022/07/20 04:00:00;;;;;;;7.83;5.80;;;;;20.30;100823.00;;;;5087359;28;20288;-70
2022/07/20 04:02:47;;;;;;;9.13;5.87;;;;;20.40;100825.00;;;;5082115;28;20624;-70
2022/07/20 04:05:33;;;;;;;8.03;5.60;;;;;20.40;100826.00;;;;5087334;28;20278;-70
2022/07/20 04:08:21;;;;;;;8.03;5.87;;;;;20.30;100826.00;;;;5079029;28;20223;-73
2022/07/20 04:11:07;;;;;;;7.17;5.73;;;;;20.40;100856.00;;;;5079644;28;20314;-71
2022/07/20 04:13:54;;;;;;;7.00;5.83;;;;;20.50;100876.00;;;;5075461;28;20228;-71
2022/07/20 04:16:40;;;;;;;10.40;6.43;;;;;20.90;100850.00;;;;5073647;28;20219;-71
2022/07/20 04:19:26;;;;;;;8.63;6.10;;;;;20.80;100860.00;;;;5079607;28;20261;-72
2022/07/20 04:22:13;;;;;;;9.30;6.00;;;;;20.70;100859.00;;;;5086722;28;20239;-70
2022/07/20 04:25:01;;;;;;;10.47;6.43;;;;;20.70;100860.00;;;;5077246;28;20224;-75
2022/07/20 04:27:47;;;;;;;10.27;5.87;;;;;20.70;100866.00;;;;5078835;28;20322;-72
2022/07/20 04:30:35;;;;;;;8.67;5.47;;;;;20.70;100860.00;;;;5079345;28;20231;-73
2022/07/20 04:33:22;;;;;;;7.27;5.83;;;;;20.70;100865.00;;;;5083295;28;20224;-73
2022/07/20 04:36:08;;;;;;;10.03;5.90;;;;;20.70;100866.00;;;;5073972;28;20706;-74
2022/07/20 04:38:55;;;;;;;8.73;5.93;;;;;20.80;100870.00;;;;5073627;28;20231;-73
2022/07/20 04:41:43;;;;;;;8.13;5.93;;;;;20.80;100871.00;;;;5063040;28;20240;-72
2022/07/20 04:44:30;;;;;;;7.87;5.63;;;;;20.70;100882.00;;;;5065006;28;20231;-72
2022/07/20 04:47:16;;;;;;;9.73;5.57;;;;;20.70;100875.00;;;;5062940;28;20231;-75
2022/07/20 04:50:02;;;;;;;8.70;5.57;;;;;20.80;100882.00;;;;5062696;28;20796;-71
2022/07/20 04:52:48;;;;;;;6.33;5.60;;;;;20.80;100892.00;;;;5052018;28;20276;-71
2022/07/20 04:55:34;;;;;;;10.57;5.47;;;;;20.80;100887.00;;;;5065478;28;20324;-71
2022/07/20 04:58:22;;;;;;;7.20;5.70;;;;;20.90;100898.00;;;;5057647;28;20302;-74
2022/07/20 05:01:15;;;;;;;8.70;5.83;;;;;20.90;100899.00;;;;5060583;28;20894;-72
2022/07/20 05:04:02;;;;;;;6.60;5.73;;;;;21.00;100905.00;;;;5060362;28;20235;-72
2022/07/20 05:06:48;;;;;;;11.27;6.37;;;;;21.00;100896.00;;;;5071571;28;20223;-74
2022/07/20 05:09:34;;;;;;;8.10;5.83;;;;;21.10;100906.00;;;;5065670;28;20263;-74
2022/07/20 05:12:21;;;;;;;9.27;5.40;;;;;21.10;100916.00;;;;5054697;28;20260;-70
2022/07/20 05:15:10;;;;;;;9.53;5.60;;;;;21.10;100905.00;;;;5062418;28;20271;-70
2022/07/20 05:17:56;;;;;;;7.27;5.60;;;;;21.20;100912.00;;;;5058019;28;20294;-73
2022/07/20 05:20:42;;;;;;;7.37;5.40;;;;;21.40;100902.00;;;;5061299;28;20291;-73
2022/07/20 05:23:29;;;;;;;8.27;5.67;;;;;21.40;100912.00;;;;5048759;28;20245;-73
2022/07/20 05:26:15;;;;;;;10.13;5.77;;;;;21.40;100921.00;;;;5071591;28;20227;-72
2022/07/20 05:29:02;;;;;;;8.87;5.90;;;;;21.50;100917.00;;;;5054200;28;20351;-71
2022/07/20 05:31:50;;;;;;;10.83;5.90;;;;;21.60;100923.00;;;;5061033;28;20334;-73
2022/07/20 05:34:36;;;;;;;6.20;5.57;;;;;21.70;100922.00;;;;5058810;28;20243;-74
2022/07/20 05:37:22;;;;;;;8.57;5.87;;;;;21.80;100924.00;;;;5063443;28;20245;-73
2022/07/20 05:40:10;;;;;;;6.67;5.53;;;;;21.90;100932.00;;;;5078313;28;20269;-76
2022/07/20 05:42:59;;;;;;;8.63;6.27;;;;;22.00;100938.00;;;;5075800;28;20244;-71
2022/07/20 05:45:45;;;;;;;11.53;6.67;;;;;22.10;100939.00;;;;5056064;28;20376;-73
2022/07/20 05:48:34;;;;;;;7.93;6.47;;;;;22.20;100950.00;;;;5062385;28;20231;-72
2022/07/20 05:51:21;;;;;;;6.60;5.67;;;;;22.20;100931.00;;;;5058961;28;20346;-72
2022/07/20 05:54:17;;;;;;;10.33;5.53;;;;;22.20;100938.00;;;;5080812;28;20604;-73
2022/07/20 05:57:03;;;;;;;8.17;6.57;;;;;22.30;100958.00;;;;5053939;28;20271;-73
2022/07/20 05:59:57;;;;;;;15.43;6.93;;;;;22.50;100964.00;;;;5063136;28;22456;-71
2022/07/20 06:02:43;;;;;;;15.70;6.73;;;;;22.50;100969.00;;;;5069298;28;20233;-74
2022/07/20 06:05:31;;;;;;;16.03;6.13;;;;;22.70;100971.00;;;;5063541;28;20363;-73
2022/07/20 06:08:18;;;;;;;9.40;6.40;;;;;22.80;100972.00;;;;5064653;28;20225;-75
2022/07/20 06:11:04;;;;;;;9.33;6.97;;;;;22.90;100965.00;;;;5063441;28;20264;-71
2022/07/20 06:13:50;;;;;;;17.57;10.00;;;;;23.10;100963.00;;;;5078418;28;20307;-76
2022/07/20 06:16:36;;;;;;;10.30;6.03;;;;;23.50;100969.00;;;;5081347;28;20231;-74
2022/07/20 06:19:23;;;;;;;8.97;5.63;;;;;23.60;100970.00;;;;5080564;28;20223;-74
2022/07/20 06:22:12;;;;;;;9.67;5.30;;;;;23.70;100970.00;;;;5075716;28;20595;-75
2022/07/20 06:24:58;;;;;;;6.37;5.00;;;;;23.80;100966.00;;;;5081173;28;20305;-75
2022/07/20 06:27:44;;;;;;;7.53;5.30;;;;;24.00;100974.00;;;;5087482;28;20706;-76
2022/07/20 06:30:30;;;;;;;10.07;4.83;;;;;24.00;100976.00;;;;5080005;28;20243;-74
2022/07/20 06:33:17;;;;;;;12.40;5.40;;;;;24.10;100984.00;;;;5090105;28;20226;-73
2022/07/20 06:36:03;;;;;;;8.67;5.10;;;;;24.30;100979.00;;;;5077759;28;20231;-71
2022/07/20 06:38:51;;;;;;;10.53;5.60;;;;;24.40;100986.00;;;;5081977;28;20240;-73
2022/07/20 06:41:38;;;;;;;11.33;6.00;;;;;24.40;100992.00;;;;5084708;28;20232;-73
2022/07/20 06:44:24;;;;;;;10.43;6.60;;;;;24.60;100997.00;;;;5081981;28;20231;-75
2022/07/20 06:47:11;;;;;;;15.57;9.13;;;;;24.70;100992.00;;;;5079097;28;20230;-73
2022/07/20 06:49:58;;;;;;;16.63;9.97;;;;;24.80;100988.00;;;;5087633;28;20234;-74
2022/07/20 06:52:49;;;;;;;16.93;10.77;;;;;24.80;100995.00;;;;5083877;28;20227;-73
2022/07/20 06:55:37;;;;;;;24.77;10.83;;;;;24.80;101014.00;;;;5085241;28;20224;-70
2022/07/20 06:58:23;;;;;;;20.47;11.27;;;;;24.80;101019.00;;;;5084110;28;20231;-72
2022/07/20 07:01:10;;;;;;;15.80;11.00;;;;;24.90;101016.00;;;;5083480;28;20605;-73
2022/07/20 07:03:56;;;;;;;21.27;11.20;;;;;25.10;101028.00;;;;5082738;27;20306;-72
2022/07/20 07:06:42;;;;;;;17.10;11.50;;;;;25.00;101034.00;;;;5085158;28;20601;-72
2022/07/20 07:09:29;;;;;;;23.43;11.47;;;;;25.00;101036.00;;;;5069228;28;20374;-71
2022/07/20 07:12:17;;;;;;;20.10;12.10;;;;;25.00;101041.00;;;;5079619;28;20254;-74
2022/07/20 07:15:04;;;;;;;14.80;11.27;;;;;25.00;101056.00;;;;5080940;28;20230;-70
2022/07/20 07:17:50;;;;;;;15.93;12.20;;;;;25.10;101058.00;;;;5084559;28;20235;-71
2022/07/20 07:20:37;;;;;;;23.83;12.83;;;;;25.40;101069.00;;;;5087533;28;20239;-73
2022/07/20 07:23:23;;;;;;;20.27;13.03;;;;;25.30;101061.00;;;;5084238;28;20312;-70
2022/07/20 07:26:09;;;;;;;18.70;12.90;;;;;25.30;101070.00;;;;5080462;28;20231;-71
2022/07/20 07:28:58;;;;;;;18.93;13.33;;;;;25.40;101075.00;;;;5074930;28;20660;-72
2022/07/20 07:31:49;;;;;;;20.87;14.33;;;;;25.40;101078.00;;;;5085977;28;20231;-72
2022/07/20 07:34:35;;;;;;;18.33;14.00;;;;;25.60;101082.00;;;;5077492;28;20279;-74
2022/07/20 07:37:22;;;;;;;22.43;14.40;;;;;25.70;101089.00;;;;5080330;28;20224;-73
2022/07/20 07:40:09;;;;;;;22.67;15.30;;;;;25.70;101093.00;;;;5082193;28;20216;-72
2022/07/20 07:42:57;;;;;;;25.97;18.80;;;;;25.90;101116.00;;;;5086877;28;20270;-71
2022/07/20 07:45:44;;;;;;;46.47;31.83;;;;;25.90;101109.00;;;;5084200;28;20231;-70
2022/07/20 07:48:31;;;;;;;25.27;17.20;;;;;25.90;101122.00;;;;5078613;28;20243;-73
2022/07/20 07:51:17;;;;;;;27.47;18.30;;;;;26.00;101116.00;;;;5085225;28;20239;-71
2022/07/20 07:54:04;;;;;;;28.20;18.17;;;;;26.00;101128.00;;;;5078250;28;20228;-73
2022/07/20 07:56:50;;;;;;;30.47;18.97;;;;;26.10;101131.00;;;;5078436;28;20223;-70
2022/07/20 07:59:36;;;;;;;25.57;18.30;;;;;26.20;101133.00;;;;5084784;28;20349;-73
2022/07/20 08:02:25;;;;;;;31.13;18.83;;;;;26.40;101134.00;;;;5090296;28;20223;-72
2022/07/20 08:05:12;;;;;;;25.37;17.57;;;;;26.40;101152.00;;;;5079946;28;20248;-75
2022/07/20 08:07:59;;;;;;;26.57;18.37;;;;;26.50;101144.00;;;;5061476;28;20740;-74
2022/07/20 08:10:45;;;;;;;30.07;18.83;;;;;26.60;101146.00;;;;5065130;28;20713;-71
2022/07/20 08:13:32;;;;;;;24.70;18.70;;;;;26.70;101144.00;;;;5064416;28;20753;-72
2022/07/20 08:16:18;;;;;;;23.33;18.87;;;;;26.80;101155.00;;;;5071600;28;20228;-71
2022/07/20 08:19:06;;;;;;;28.42;19.52;;;;;26.70;101159.00;;;;5055158;28;20290;-72
2022/07/20 08:21:53;;;;;;;33.43;19.47;;;;;26.80;101165.00;;;;5057670;28;20694;-72
2022/07/20 08:24:39;;;;;;;25.60;18.77;;;;;27.00;101166.00;;;;5072730;28;20227;-71
2022/07/20 08:27:25;;;;;;;29.47;20.10;;;;;27.10;101176.00;;;;5054778;28;20367;-69
2022/07/20 08:30:12;;;;;;;36.42;20.90;;;;;27.20;101168.00;;;;5055202;28;20322;-71
2022/07/20 08:33:19;;;;;;;29.47;19.83;;;;;27.30;101178.00;;;;5076454;28;20235;-71
2022/07/20 08:36:07;;;;;;;26.65;19.67;;;;;27.60;101185.00;;;;5061029;28;20291;-71
2022/07/20 08:38:54;;;;;;;25.48;20.45;;;;;27.70;101187.00;;;;5066945;28;20683;-69
2022/07/20 08:41:42;;;;;;;32.67;21.70;;;;;28.00;101202.00;;;;5053388;28;20251;-70
2022/07/20 08:44:28;;;;;;;28.13;20.00;;;;;28.20;101197.00;;;;5061716;28;20228;-70
2022/07/20 08:47:16;;;;;;;27.67;20.90;;;;;28.10;101206.00;;;;5059788;28;20227;-72
2022/07/20 08:50:03;;;;;;;28.80;20.30;;;;;27.90;101216.00;;;;5054456;28;20229;-72
2022/07/20 08:52:50;;;;;;;29.35;19.65;;;;;28.00;101204.00;;;;5062875;28;20250;-69
2022/07/20 08:55:37;;;;;;;23.92;18.63;;;;;28.00;101199.00;;;;5060046;28;20306;-72
2022/07/20 08:58:23;;;;;;;26.45;20.15;;;;;28.20;101199.00;;;;5051317;28;20244;-71
2022/07/20 09:01:13;;;;;;;27.75;19.48;;;;;28.20;101201.00;;;;5064502;28;20239;-72
2022/07/20 09:04:10;;;;;;;28.75;19.10;;;;;28.30;101206.00;;;;5053548;28;20729;-71
2022/07/20 09:06:58;;;;;;;25.38;18.73;;;;;28.50;101189.00;;;;5068511;28;20238;-68
2022/07/20 09:09:46;;;;;;;25.27;18.92;;;;;28.70;101200.00;;;;5071616;28;20848;-71
2022/07/20 09:12:51;;;;;;;32.03;19.50;;;;;28.80;101198.00;;;;5075502;28;20771;-73
2022/07/20 09:15:38;;;;;;;27.23;18.60;;;;;28.90;101182.00;;;;5057576;28;20252;-73
2022/07/20 09:18:27;;;;;;;24.85;19.60;;;;;29.20;101191.00;;;;5055701;28;20224;-72
2022/07/20 09:21:13;;;;;;;25.88;18.92;;;;;29.20;101186.00;;;;5056063;28;20220;-73
2022/07/20 09:24:04;;;;;;;24.38;18.80;;;;;29.10;101181.00;;;;5059037;28;20232;-73
2022/07/20 09:27:04;;;;;;;25.10;18.63;;;;;29.10;101181.00;;;;5081459;28;20223;-68
2022/07/20 09:30:04;;;;;;;23.08;17.60;;;;;29.20;101176.00;;;;5093914;28;20627;-70
2022/07/20 09:32:57;;;;;;;23.33;17.58;;;;;29.20;101165.00;;;;5074276;28;20281;-69
2022/07/20 09:35:48;;;;;;;24.48;17.90;;;;;29.40;101162.00;;;;5076850;28;20298;-70
2022/07/20 09:38:36;;;;;;;26.95;18.20;;;;;29.50;101168.00;;;;5085017;28;20223;-69
2022/07/20 09:41:25;;;;;;;29.33;20.85;;;;;29.60;101173.00;;;;5083577;28;20251;-71
2022/07/20 09:44:23;;;;;;;23.33;16.70;;;;;29.70;101166.00;;;;5084521;28;20681;-69
2022/07/20 09:47:12;;;;;;;23.25;16.50;;;;;29.80;101170.00;;;;5079257;28;20711;-71
2022/07/20 09:49:58;;;;;;;21.80;16.17;;;;;30.00;101163.00;;;;5082144;28;20763;-72
2022/07/20 09:52:45;;;;;;;21.95;16.45;;;;;29.90;101162.00;;;;5086419;28;20234;-71
2022/07/20 09:55:33;;;;;;;20.33;16.08;;;;;29.90;101158.00;;;;5084905;28;20231;-71
2022/07/20 09:58:23;;;;;;;20.30;16.55;;;;;30.00;101164.00;;;;5082632;28;20965;-71
2022/07/20 10:01:11;;;;;;;22.20;16.88;;;;;30.30;101164.00;;;;5083200;28;20683;-73
2022/07/20 10:03:59;;;;;;;22.88;16.73;;;;;30.50;101163.00;;;;5084031;28;20293;-72
2022/07/20 10:06:47;;;;;;;21.23;15.80;;;;;30.70;101178.00;;;;5080950;28;20711;-69
2022/07/20 10:09:34;;;;;;;21.15;15.30;;;;;30.60;101169.00;;;;5081365;28;20230;-70
2022/07/20 10:12:20;;;;;;;18.90;15.18;;;;;30.40;101180.00;;;;5082802;28;20279;-71
2022/07/20 10:15:12;;;;;;;21.77;14.95;;;;;30.60;101181.00;;;;5084855;28;20317;-69
2022/07/20 10:18:00;;;;;;;19.48;15.35;;;;;30.80;101185.00;;;;5094216;28;20886;-69
2022/07/20 10:20:47;;;;;;;20.60;15.65;;;;;30.80;101176.00;;;;5075783;28;20232;-70
2022/07/20 10:23:33;;;;;;;20.75;14.98;;;;;31.00;101171.00;;;;5079695;28;20247;-72
2022/07/20 10:26:26;;;;;;;20.38;15.52;;;;;31.30;101170.00;;;;5071970;28;20277;-70
2022/07/20 10:29:25;;;;;;;19.90;15.40;;;;;31.20;101187.00;;;;5070243;28;20227;-70
2022/07/20 10:32:16;;;;;;;22.23;15.77;;;;;31.10;101199.00;;;;5073125;28;20605;-69
2022/07/20 10:35:25;;;;;;;25.15;16.27;;;;;31.30;101207.00;;;;5077667;28;20223;-69
2022/07/20 10:38:12;;;;;;;23.15;16.40;;;;;31.40;101208.00;;;;5078721;28;20236;-71
2022/07/20 10:44:30;;;;;;;21.40;15.07;;;;;31.50;101231.00;;;;5084956;28;20235;-72
2022/07/20 10:47:41;;;;;;;19.73;15.13;;;;;31.60;101238.00;;;;5079437;28;20219;-69
2022/07/20 10:50:33;;;;;;;22.10;14.85;;;;;31.60;101253.00;;;;5086766;28;20239;-72
2022/07/20 10:53:33;;;;;;;17.88;13.85;;;;;31.80;101237.00;;;;5082682;28;20231;-72
2022/07/20 10:56:30;;;;;;;18.58;12.73;;;;;31.90;101240.00;;;;5083924;28;20223;-72
2022/07/20 10:59:17;;;;;;;17.95;12.07;;;;;32.00;101246.00;;;;5078873;28;20839;-71
2022/07/20 11:02:03;;;;;;;15.35;11.10;;;;;31.80;101250.00;;;;5073715;28;20285;-71
2022/07/20 11:04:50;;;;;;;15.63;11.68;;;;;31.90;101251.00;;;;5062940;28;20270;-70
2022/07/20 11:07:42;;;;;;;15.73;12.73;;;;;31.80;101245.00;;;;5082030;28;20715;-71
2022/07/20 11:10:30;;;;;;;17.52;13.30;;;;;31.80;101233.00;;;;5088090;28;20313;-70
2022/07/20 11:13:16;;;;;;;18.85;12.60;;;;;31.70;101230.00;;;;5084165;28;20231;-69
2022/07/20 11:16:04;;;;;;;18.10;12.52;;;;;31.70;101239.00;;;;5084279;28;20227;-71
2022/07/20 11:18:53;;;;;;;13.50;11.52;;;;;31.90;101227.00;;;;5077399;28;20232;-72
2022/07/20 11:21:43;;;;;;;17.38;13.43;;;;;32.00;101236.00;;;;5079713;28;20239;-70
2022/07/20 11:24:30;;;;;;;17.40;13.52;;;;;32.00;101238.00;;;;5084100;28;20239;-71
2022/07/20 11:27:17;;;;;;;19.40;13.15;;;;;31.90;101238.00;;;;5075111;28;20321;-71
2022/07/20 11:30:04;;;;;;;19.45;13.70;;;;;32.00;101241.00;;;;5084144;28;20850;-71
2022/07/20 11:32:55;;;;;;;19.48;13.25;;;;;32.20;101226.00;;;;5072109;28;20247;-71
2022/07/20 11:35:41;;;;;;;17.23;12.18;;;;;32.40;101233.00;;;;5082408;28;20274;-70
2022/07/20 11:38:35;;;;;;;16.52;11.68;;;;;32.30;101228.00;;;;5086450;28;20227;-72
2022/07/20 11:41:25;;;;;;;12.23;9.95;;;;;32.30;101223.00;;;;5077597;28;20232;-69
2022/07/20 11:44:16;;;;;;;13.65;9.18;;;;;32.60;101228.00;;;;5073124;28;20711;-73
2022/07/20 11:47:02;;;;;;;12.07;9.85;;;;;32.60;101221.00;;;;5082035;28;20266;-73
2022/07/20 11:49:49;;;;;;;13.57;10.35;;;;;32.60;101225.00;;;;5078181;28;20747;-71
2022/07/20 11:52:40;;;;;;;14.65;10.13;;;;;32.70;101227.00;;;;5074053;28;20357;-74
2022/07/20 11:55:36;;;;;;;14.05;10.18;;;;;32.70;101219.00;;;;5069740;28;20267;-73
2022/07/20 11:58:30;;;;;;;14.32;9.90;;;;;33.00;101219.00;;;;5075480;28;20600;-73
2022/07/20 12:01:24;;;;;;;15.57;9.60;;;;;32.90;101227.00;;;;5072391;28;20362;-71
2022/07/20 12:04:13;;;;;;;13.13;10.15;;;;;33.00;101225.00;;;;5093925;28;20602;-72
2022/07/20 12:07:00;;;;;;;16.20;12.65;;;;;33.00;101233.00;;;;5077199;28;20228;-71
2022/07/20 12:09:46;;;;;;;13.95;9.98;;;;;33.00;101207.00;;;;5075392;28;20362;-71
2022/07/20 12:15:34;;;;;;;13.45;10.15;;;;;33.40;101211.00;;;;5089494;28;20598;-72
2022/07/20 12:18:35;;;;;;;10.80;9.70;;;;;33.70;101206.00;;;;5081522;28;20704;-72
2022/07/20 12:21:42;;;;;;;12.02;9.43;;;;;33.60;101196.00;;;;5071462;28;20709;-72
2022/07/20 12:24:29;;;;;;;14.43;9.27;;;;;33.60;101210.00;;;;5081502;28;20595;-70
2022/07/20 12:27:23;;;;;;;13.23;10.00;;;;;33.60;101195.00;;;;5080815;28;20228;-72
2022/07/20 12:30:26;;;;;;;14.50;9.82;;;;;33.80;101211.00;;;;5073683;28;20231;-69
2022/07/20 12:33:15;;;;;;;13.35;9.85;;;;;33.50;101214.00;;;;5093834;28;20322;-70
2022/07/20 12:36:05;;;;;;;15.23;10.77;;;;;33.60;101208.00;;;;5083494;28;20227;-73
2022/07/20 12:38:58;;;;;;;13.73;10.45;;;;;33.60;101213.00;;;;5084867;27;20276;-70
2022/07/20 12:41:44;;;;;;;14.15;10.40;;;;;33.60;101209.00;;;;5072519;28;20239;-71
2022/07/20 12:44:58;;;;;;;11.63;9.82;;;;;33.80;101202.00;;;;5077029;28;20250;-72
2022/07/20 12:47:45;;;;;;;12.52;10.10;;;;;34.00;101198.00;;;;5086308;28;20239;-69
2022/07/20 12:50:52;;;;;;;13.68;10.10;;;;;34.20;101203.00;;;;5084060;28;20227;-72
2022/07/20 12:53:39;;;;;;;12.25;9.85;;;;;34.40;101208.00;;;;5081517;28;20243;-73
2022/07/20 12:56:31;;;;;;;11.35;9.32;;;;;34.10;101205.00;;;;5051294;28;20306;-70
2022/07/20 12:59:18;;;;;;;12.45;9.98;;;;;34.10;101204.00;;;;5074006;28;20281;-69
2022/07/20 13:02:04;;;;;;;15.05;10.00;;;;;34.40;101191.00;;;;5078708;28;20239;-71
2022/07/20 13:04:50;;;;;;;17.92;9.95;;;;;34.50;101193.00;;;;5084205;28;20246;-69
2022/07/20 13:07:38;;;;;;;17.77;10.07;;;;;34.40;101184.00;;;;5078880;28;20846;-70
2022/07/20 13:10:25;;;;;;;12.60;9.43;;;;;34.50;101183.00;;;;5071227;28;20331;-74
2022/07/20 13:13:11;;;;;;;16.70;9.77;;;;;34.50;101185.00;;;;5076082;28;20610;-73
2022/07/20 13:15:58;;;;;;;13.98;9.30;;;;;34.80;101185.00;;;;5079781;28;21035;-72
2022/07/20 13:18:44;;;;;;;12.73;9.00;;;;;34.50;101190.00;;;;5083777;28;20244;-73
2022/07/20 13:21:31;;;;;;;12.25;8.65;;;;;34.40;101191.00;;;;5073759;28;20235;-71
2022/07/20 13:24:18;;;;;;;12.77;9.00;;;;;34.40;101193.00;;;;5071163;28;20289;-72
2022/07/20 13:27:05;;;;;;;10.63;8.82;;;;;34.40;101194.00;;;;5068922;28;20224;-73
2022/07/20 13:29:51;;;;;;;11.27;8.57;;;;;34.70;101185.00;;;;5077851;28;20273;-71
2022/07/20 13:32:38;;;;;;;9.68;8.60;;;;;34.70;101188.00;;;;5072335;28;20706;-71
2022/07/20 13:35:24;;;;;;;11.75;8.65;;;;;34.70;101194.00;;;;5067460;28;20232;-69
2022/07/20 13:38:11;;;;;;;11.02;9.30;;;;;34.70;101199.00;;;;5069798;28;20220;-70
2022/07/20 13:40:59;;;;;;;9.98;8.40;;;;;34.80;101209.00;;;;5075782;28;20228;-73
2022/07/20 13:43:45;;;;;;;9.30;8.40;;;;;34.70;101202.00;;;;5068888;28;20227;-72
2022/07/20 13:46:32;;;;;;;10.18;8.82;;;;;34.10;101206.00;;;;5068125;28;20252;-73
2022/07/20 13:49:18;;;;;;;12.77;8.75;;;;;33.80;101207.00;;;;5069766;28;20236;-72